Terminal Aerodrome Forecast
Issued by NWS

Home | Current Version | Previous Version | Text Only | Print | Product List | Glossary On
Versions: 1 2 3 4 5 6 7 8 9 10 11 12 13 14 15 16 17 18
000
FTUS41 KPHI 080540
TAFPNE
TAF
KPNE 080540Z 0806/0906 22005KT P6SM BKN250
     FM081000 26007KT P6SM BKN080
     FM081600 25008G16KT P6SM BKN060
      TEMPO 0820/0823 29012G26KT 3SM TSRA BKN030CB
     FM082300 30004KT P6SM VCSH BKN050=

USA.gov is the U.S. government's official web portal to all federal, state and local government web resources and services.